N3368K ENVA-ENSG
Flight info
| Callsign | N3368K |
|---|---|
| Flight time | 1h 28m |
| Altitude | 12000 |
| Route | OSMUM DCT EMLER |
| Aircraft | BE36/L-BDFGLORY/S |
Departure
| Time | 2026-05-07 13:21 |
|---|---|
| Airport | Trondheim Airport, Værnes (ENVA) |
Arrival
| Time | 2026-05-07 14:49 |
|---|---|
| Airport | Sogndal Airport, Haukåsen (ENSG) |
| Time | Latitude | Longitude | Altitude | Speed | Heading |
|---|---|---|---|---|---|
| 2026-05-07 13:08 | 63.45404 | 10.92241 | 48 ft | 0 kts | 271° |
| 2026-05-07 13:16 | 63.45406 | 10.92221 | 48 ft | 7 kts | 304° |
| 2026-05-07 13:17 | 63.45492 | 10.92210 | 47 ft | 15 kts | 9° |
| 2026-05-07 13:17 | 63.45564 | 10.92334 | 48 ft | 11 kts | 43° |
| 2026-05-07 13:17 | 63.45597 | 10.92481 | 49 ft | 12 kts | 88° |
| 2026-05-07 13:17 | 63.45595 | 10.92691 | 51 ft | 15 kts | 92° |
| 2026-05-07 13:18 | 63.45593 | 10.92942 | 53 ft | 17 kts | 90° |
| 2026-05-07 13:18 | 63.45593 | 10.93226 | 56 ft | 19 kts | 90° |
| 2026-05-07 13:18 | 63.45593 | 10.93542 | 59 ft | 21 kts | 90° |
| 2026-05-07 13:18 | 63.45616 | 10.93871 | 61 ft | 22 kts | 51° |
| 2026-05-07 13:19 | 63.45665 | 10.93987 | 61 ft | 0 kts | 46° |
| 2026-05-07 13:19 | 63.45688 | 10.94041 | 61 ft | 16 kts | 45° |
| 2026-05-07 13:19 | 63.45756 | 10.94065 | 58 ft | 3 kts | 272° |
| 2026-05-07 13:20 | 63.45756 | 10.94063 | 59 ft | 0 kts | 268° |
| 2026-05-07 13:20 | 63.45761 | 10.93788 | 57 ft | 53 kts | 271° |
| 2026-05-07 13:20 | 63.45746 | 10.92587 | 129 ft | 93 kts | 268° |
| 2026-05-07 13:20 | 63.45699 | 10.91017 | 516 ft | 101 kts | 268° |
| 2026-05-07 13:21 | 63.45655 | 10.89441 | 1044 ft | 102 kts | 267° |
| 2026-05-07 13:21 | 63.45623 | 10.87843 | 1564 ft | 102 kts | 267° |
| 2026-05-07 13:21 | 63.45576 | 10.86255 | 2022 ft | 107 kts | 251° |
| 2026-05-07 13:21 | 63.44957 | 10.85421 | 2473 ft | 118 kts | 183° |
| 2026-05-07 13:22 | 63.44127 | 10.85617 | 2919 ft | 118 kts | 187° |
| 2026-05-07 13:22 | 63.43315 | 10.85530 | 3422 ft | 117 kts | 188° |
| 2026-05-07 13:22 | 63.42504 | 10.85494 | 3882 ft | 118 kts | 188° |
| 2026-05-07 13:22 | 63.41673 | 10.85477 | 4332 ft | 120 kts | 188° |
| 2026-05-07 13:23 | 63.40832 | 10.85454 | 4755 ft | 121 kts | 188° |
| 2026-05-07 13:23 | 63.39988 | 10.85433 | 5131 ft | 121 kts | 189° |
| 2026-05-07 13:23 | 63.39145 | 10.85415 | 5509 ft | 121 kts | 189° |
| 2026-05-07 13:23 | 63.38300 | 10.85396 | 5845 ft | 122 kts | 189° |
| 2026-05-07 13:24 | 63.37465 | 10.85380 | 6168 ft | 123 kts | 188° |
| 2026-05-07 13:24 | 63.36576 | 10.85494 | 6496 ft | 125 kts | 185° |
| 2026-05-07 13:24 | 63.35706 | 10.85599 | 6800 ft | 125 kts | 185° |
| 2026-05-07 13:24 | 63.34833 | 10.85703 | 7101 ft | 125 kts | 185° |
| 2026-05-07 13:25 | 63.33959 | 10.85812 | 7373 ft | 126 kts | 184° |
| 2026-05-07 13:25 | 63.33076 | 10.85919 | 7648 ft | 127 kts | 184° |
| 2026-05-07 13:25 | 63.32186 | 10.86028 | 7885 ft | 129 kts | 182° |
| 2026-05-07 13:25 | 63.31285 | 10.86135 | 8160 ft | 129 kts | 183° |
| 2026-05-07 13:26 | 63.30394 | 10.86249 | 8431 ft | 130 kts | 183° |
| 2026-05-07 13:26 | 63.29483 | 10.86361 | 8685 ft | 132 kts | 182° |
| 2026-05-07 13:26 | 63.28567 | 10.86471 | 8906 ft | 132 kts | 182° |
| 2026-05-07 13:26 | 63.27650 | 10.86583 | 9111 ft | 132 kts | 183° |
| 2026-05-07 13:27 | 63.26729 | 10.86700 | 9321 ft | 133 kts | 183° |
| 2026-05-07 13:27 | 63.25802 | 10.86808 | 9520 ft | 133 kts | 184° |
| 2026-05-07 13:27 | 63.24875 | 10.86926 | 9709 ft | 134 kts | 183° |
| 2026-05-07 13:27 | 63.23945 | 10.87042 | 9877 ft | 134 kts | 182° |
| 2026-05-07 13:28 | 63.23009 | 10.87151 | 10024 ft | 135 kts | 183° |
| 2026-05-07 13:28 | 63.22073 | 10.87268 | 10154 ft | 135 kts | 183° |
| 2026-05-07 13:28 | 63.21130 | 10.87383 | 10292 ft | 135 kts | 184° |
| 2026-05-07 13:28 | 63.20192 | 10.87499 | 10418 ft | 135 kts | 184° |
| 2026-05-07 13:29 | 63.19250 | 10.87613 | 10534 ft | 136 kts | 184° |
| 2026-05-07 13:29 | 63.18304 | 10.87730 | 10638 ft | 136 kts | 182° |
| 2026-05-07 13:29 | 63.17354 | 10.87844 | 10728 ft | 137 kts | 182° |
| 2026-05-07 13:29 | 63.16402 | 10.87960 | 10823 ft | 137 kts | 182° |
| 2026-05-07 13:30 | 63.15450 | 10.88076 | 10923 ft | 137 kts | 182° |
| 2026-05-07 13:30 | 63.14507 | 10.88191 | 11005 ft | 137 kts | 182° |
| 2026-05-07 13:30 | 63.13546 | 10.88241 | 11081 ft | 135 kts | 194° |
| 2026-05-07 13:30 | 63.12705 | 10.87540 | 11136 ft | 130 kts | 218° |
| 2026-05-07 13:31 | 63.12073 | 10.86180 | 11190 ft | 126 kts | 237° |
| 2026-05-07 13:31 | 63.11534 | 10.84634 | 11250 ft | 125 kts | 236° |
| 2026-05-07 13:31 | 63.10997 | 10.83107 | 11284 ft | 126 kts | 236° |
| 2026-05-07 13:31 | 63.10468 | 10.81601 | 11334 ft | 125 kts | 236° |
| 2026-05-07 13:32 | 63.09930 | 10.80068 | 11357 ft | 127 kts | 236° |
| 2026-05-07 13:32 | 63.09389 | 10.78523 | 11391 ft | 127 kts | 236° |
| 2026-05-07 13:32 | 63.08845 | 10.76975 | 11403 ft | 127 kts | 236° |
| 2026-05-07 13:32 | 63.08308 | 10.75445 | 11431 ft | 125 kts | 236° |
| 2026-05-07 13:33 | 63.07773 | 10.73923 | 11442 ft | 126 kts | 236° |
| 2026-05-07 13:33 | 63.07237 | 10.72398 | 11440 ft | 126 kts | 236° |
| 2026-05-07 13:33 | 63.06698 | 10.70866 | 11451 ft | 126 kts | 236° |
| 2026-05-07 13:33 | 63.06159 | 10.69332 | 11456 ft | 127 kts | 236° |
| 2026-05-07 13:34 | 63.05617 | 10.67797 | 11462 ft | 126 kts | 236° |
| 2026-05-07 13:34 | 63.04721 | 10.65258 | 11477 ft | 125 kts | 236° |
| 2026-05-07 13:34 | 63.04192 | 10.63756 | 11556 ft | 121 kts | 236° |
| 2026-05-07 13:35 | 63.03687 | 10.62333 | 11618 ft | 117 kts | 236° |
| 2026-05-07 13:35 | 63.03182 | 10.60903 | 11603 ft | 121 kts | 236° |
| 2026-05-07 13:35 | 63.02644 | 10.59373 | 11611 ft | 131 kts | 235° |
| 2026-05-07 13:35 | 63.02070 | 10.57750 | 11623 ft | 137 kts | 235° |
| 2026-05-07 13:36 | 63.01474 | 10.56069 | 11640 ft | 141 kts | 235° |
| 2026-05-07 13:36 | 63.00862 | 10.54340 | 11653 ft | 144 kts | 234° |
| 2026-05-07 13:36 | 63.00241 | 10.52590 | 11657 ft | 146 kts | 234° |
| 2026-05-07 13:36 | 62.99616 | 10.50834 | 11741 ft | 143 kts | 234° |
| 2026-05-07 13:37 | 62.99014 | 10.49138 | 11862 ft | 138 kts | 234° |
| 2026-05-07 13:37 | 62.98431 | 10.47504 | 11976 ft | 136 kts | 235° |
| 2026-05-07 13:37 | 62.97841 | 10.45839 | 11971 ft | 140 kts | 235° |
| 2026-05-07 13:37 | 62.97237 | 10.44145 | 11976 ft | 142 kts | 235° |
| 2026-05-07 13:38 | 62.96625 | 10.42427 | 11981 ft | 144 kts | 235° |
| 2026-05-07 13:38 | 62.96002 | 10.40674 | 11986 ft | 147 kts | 235° |
| 2026-05-07 13:38 | 62.95366 | 10.38892 | 11989 ft | 149 kts | 234° |
| 2026-05-07 13:38 | 62.94724 | 10.37097 | 11991 ft | 149 kts | 235° |
| 2026-05-07 13:39 | 62.94090 | 10.35320 | 11988 ft | 151 kts | 234° |
| 2026-05-07 13:39 | 62.93440 | 10.33504 | 11983 ft | 151 kts | 234° |
| 2026-05-07 13:39 | 62.92791 | 10.31693 | 11984 ft | 151 kts | 234° |
| 2026-05-07 13:39 | 62.92142 | 10.29887 | 11984 ft | 151 kts | 235° |
| 2026-05-07 13:40 | 62.91494 | 10.28076 | 11989 ft | 151 kts | 234° |
| 2026-05-07 13:40 | 62.90845 | 10.26268 | 11990 ft | 151 kts | 234° |
| 2026-05-07 13:40 | 62.90190 | 10.24441 | 11989 ft | 152 kts | 234° |
| 2026-05-07 13:40 | 62.89531 | 10.22608 | 11986 ft | 153 kts | 234° |
| 2026-05-07 13:41 | 62.88876 | 10.20789 | 11988 ft | 152 kts | 234° |
| 2026-05-07 13:41 | 62.88217 | 10.18961 | 11980 ft | 152 kts | 234° |
| 2026-05-07 13:41 | 62.87566 | 10.17151 | 11982 ft | 151 kts | 234° |
| 2026-05-07 13:41 | 62.86915 | 10.15344 | 11983 ft | 151 kts | 234° |
| 2026-05-07 13:42 | 62.86262 | 10.13533 | 11980 ft | 151 kts | 234° |
| 2026-05-07 13:42 | 62.85608 | 10.11728 | 11983 ft | 152 kts | 234° |
| 2026-05-07 13:42 | 62.84952 | 10.09911 | 11980 ft | 152 kts | 234° |
| 2026-05-07 13:42 | 62.84295 | 10.08095 | 11981 ft | 152 kts | 234° |
| 2026-05-07 13:43 | 62.83514 | 10.06533 | 11975 ft | 154 kts | 217° |
| 2026-05-07 13:43 | 62.82629 | 10.05223 | 11977 ft | 154 kts | 219° |
| 2026-05-07 13:43 | 62.81867 | 10.04046 | 11977 ft | 154 kts | 219° |
| 2026-05-07 13:43 | 62.81024 | 10.02759 | 11978 ft | 154 kts | 219° |
| 2026-05-07 13:44 | 62.80162 | 10.01450 | 11983 ft | 154 kts | 218° |
| 2026-05-07 13:44 | 62.79285 | 10.00119 | 11979 ft | 155 kts | 218° |
| 2026-05-07 13:44 | 62.78398 | 9.98778 | 11982 ft | 155 kts | 219° |
| 2026-05-07 13:44 | 62.77522 | 9.97444 | 11960 ft | 154 kts | 218° |
| 2026-05-07 13:45 | 62.76645 | 9.96120 | 11967 ft | 153 kts | 218° |
| 2026-05-07 13:45 | 62.75772 | 9.94803 | 11967 ft | 152 kts | 218° |
| 2026-05-07 13:45 | 62.74899 | 9.93482 | 11967 ft | 152 kts | 218° |
| 2026-05-07 13:45 | 62.74028 | 9.92163 | 11967 ft | 153 kts | 218° |
| 2026-05-07 13:46 | 62.73150 | 9.90840 | 11967 ft | 153 kts | 218° |
| 2026-05-07 13:46 | 62.72260 | 9.89494 | 11971 ft | 154 kts | 218° |
| 2026-05-07 13:46 | 62.71378 | 9.88164 | 11969 ft | 154 kts | 218° |
| 2026-05-07 13:46 | 62.70510 | 9.86856 | 11970 ft | 153 kts | 218° |
| 2026-05-07 13:47 | 62.69629 | 9.85528 | 11972 ft | 154 kts | 218° |
| 2026-05-07 13:47 | 62.68754 | 9.84214 | 11975 ft | 153 kts | 218° |
| 2026-05-07 13:47 | 62.67867 | 9.82882 | 11975 ft | 154 kts | 218° |
| 2026-05-07 13:47 | 62.66973 | 9.81538 | 11975 ft | 155 kts | 218° |
| 2026-05-07 13:48 | 62.66096 | 9.80221 | 11972 ft | 155 kts | 218° |
| 2026-05-07 13:48 | 62.65213 | 9.78898 | 11978 ft | 153 kts | 218° |
| 2026-05-07 13:48 | 62.64338 | 9.77586 | 11978 ft | 153 kts | 218° |
| 2026-05-07 13:48 | 62.63461 | 9.76273 | 11976 ft | 153 kts | 218° |
| 2026-05-07 13:49 | 62.62590 | 9.74969 | 11972 ft | 151 kts | 218° |
| 2026-05-07 13:49 | 62.61722 | 9.73675 | 11973 ft | 151 kts | 218° |
| 2026-05-07 13:49 | 62.60855 | 9.72374 | 11973 ft | 152 kts | 218° |
| 2026-05-07 13:49 | 62.59985 | 9.71075 | 11973 ft | 152 kts | 218° |
| 2026-05-07 13:50 | 62.59112 | 9.69772 | 11970 ft | 153 kts | 218° |
| 2026-05-07 13:50 | 62.58231 | 9.68455 | 11971 ft | 154 kts | 218° |
| 2026-05-07 13:50 | 62.57346 | 9.67141 | 11974 ft | 154 kts | 218° |
| 2026-05-07 13:50 | 62.56461 | 9.65822 | 11974 ft | 154 kts | 218° |
| 2026-05-07 13:51 | 62.55577 | 9.64508 | 11977 ft | 154 kts | 218° |
| 2026-05-07 13:51 | 62.54689 | 9.63186 | 11980 ft | 155 kts | 218° |
| 2026-05-07 13:51 | 62.53800 | 9.61865 | 11981 ft | 154 kts | 218° |
| 2026-05-07 13:51 | 62.52910 | 9.60551 | 11980 ft | 155 kts | 218° |
| 2026-05-07 13:52 | 62.52024 | 9.59230 | 11976 ft | 154 kts | 218° |
| 2026-05-07 13:52 | 62.51144 | 9.57921 | 11978 ft | 153 kts | 218° |
| 2026-05-07 13:52 | 62.50265 | 9.56625 | 11975 ft | 152 kts | 218° |
| 2026-05-07 13:52 | 62.49400 | 9.55342 | 11970 ft | 149 kts | 219° |
| 2026-05-07 13:53 | 62.48559 | 9.54100 | 11979 ft | 144 kts | 218° |
| 2026-05-07 13:53 | 62.47726 | 9.52872 | 11984 ft | 146 kts | 218° |
| 2026-05-07 13:53 | 62.46881 | 9.51621 | 11982 ft | 147 kts | 218° |
| 2026-05-07 13:53 | 62.46045 | 9.50382 | 11987 ft | 148 kts | 218° |
| 2026-05-07 13:54 | 62.45188 | 9.49119 | 11987 ft | 150 kts | 218° |
| 2026-05-07 13:54 | 62.44324 | 9.47846 | 11993 ft | 151 kts | 218° |
| 2026-05-07 13:54 | 62.43456 | 9.46567 | 11991 ft | 151 kts | 218° |
| 2026-05-07 13:54 | 62.42589 | 9.45293 | 11994 ft | 151 kts | 218° |
| 2026-05-07 13:55 | 62.41724 | 9.44018 | 11993 ft | 151 kts | 218° |
| 2026-05-07 13:55 | 62.40850 | 9.42735 | 11993 ft | 151 kts | 218° |
| 2026-05-07 13:55 | 62.39980 | 9.41456 | 11994 ft | 151 kts | 218° |
| 2026-05-07 13:55 | 62.39110 | 9.40179 | 11994 ft | 152 kts | 218° |
| 2026-05-07 13:56 | 62.38241 | 9.38903 | 11991 ft | 151 kts | 218° |
| 2026-05-07 13:56 | 62.37374 | 9.37636 | 12000 ft | 149 kts | 218° |
| 2026-05-07 13:56 | 62.36512 | 9.36372 | 12000 ft | 150 kts | 218° |
| 2026-05-07 13:56 | 62.35645 | 9.35100 | 12000 ft | 151 kts | 218° |
| 2026-05-07 13:57 | 62.34772 | 9.33827 | 11997 ft | 151 kts | 218° |
| 2026-05-07 13:57 | 62.33905 | 9.32559 | 11998 ft | 150 kts | 218° |
| 2026-05-07 13:57 | 62.33052 | 9.31313 | 11995 ft | 149 kts | 218° |
| 2026-05-07 13:57 | 62.32193 | 9.30058 | 11992 ft | 149 kts | 218° |
| 2026-05-07 13:58 | 62.31339 | 9.28815 | 11999 ft | 149 kts | 218° |
| 2026-05-07 13:58 | 62.30482 | 9.27562 | 11995 ft | 148 kts | 218° |
| 2026-05-07 13:58 | 62.29623 | 9.26311 | 11997 ft | 150 kts | 218° |
| 2026-05-07 13:58 | 62.28753 | 9.25047 | 11995 ft | 151 kts | 218° |
| 2026-05-07 13:59 | 62.27885 | 9.23786 | 11996 ft | 150 kts | 218° |
| 2026-05-07 13:59 | 62.27022 | 9.22531 | 11997 ft | 150 kts | 218° |
| 2026-05-07 13:59 | 62.26157 | 9.21274 | 11996 ft | 150 kts | 218° |
| 2026-05-07 13:59 | 62.25307 | 9.20024 | 11993 ft | 144 kts | 218° |
| 2026-05-07 14:00 | 62.24470 | 9.18851 | 12014 ft | 144 kts | 217° |
| 2026-05-07 14:00 | 62.23639 | 9.17629 | 12003 ft | 148 kts | 219° |
| 2026-05-07 14:00 | 62.22772 | 9.16355 | 12004 ft | 151 kts | 218° |
| 2026-05-07 14:00 | 62.21895 | 9.15091 | 11980 ft | 151 kts | 218° |
| 2026-05-07 14:01 | 62.21034 | 9.13853 | 11984 ft | 148 kts | 218° |
| 2026-05-07 14:01 | 62.20179 | 9.12617 | 11980 ft | 149 kts | 218° |
| 2026-05-07 14:01 | 62.19322 | 9.11377 | 11980 ft | 148 kts | 218° |
| 2026-05-07 14:01 | 62.18470 | 9.10151 | 11979 ft | 148 kts | 218° |
| 2026-05-07 14:02 | 62.17619 | 9.08920 | 11983 ft | 148 kts | 218° |
| 2026-05-07 14:02 | 62.16760 | 9.07682 | 11983 ft | 149 kts | 218° |
| 2026-05-07 14:02 | 62.15901 | 9.06445 | 11984 ft | 149 kts | 218° |
| 2026-05-07 14:02 | 62.15039 | 9.05205 | 11989 ft | 149 kts | 218° |
| 2026-05-07 14:03 | 62.14186 | 9.03976 | 11987 ft | 150 kts | 218° |
| 2026-05-07 14:03 | 62.13310 | 9.02718 | 11986 ft | 150 kts | 218° |
| 2026-05-07 14:03 | 62.12455 | 9.01490 | 11987 ft | 149 kts | 218° |
| 2026-05-07 14:03 | 62.11587 | 9.00243 | 11987 ft | 151 kts | 218° |
| 2026-05-07 14:04 | 62.10711 | 8.98989 | 11981 ft | 152 kts | 218° |
| 2026-05-07 14:04 | 62.09831 | 8.97727 | 11988 ft | 153 kts | 218° |
| 2026-05-07 14:04 | 62.08952 | 8.96467 | 11986 ft | 151 kts | 218° |
| 2026-05-07 14:04 | 62.08081 | 8.95222 | 11984 ft | 150 kts | 218° |
| 2026-05-07 14:05 | 62.07214 | 8.93976 | 11983 ft | 151 kts | 218° |
| 2026-05-07 14:05 | 62.06341 | 8.92739 | 11987 ft | 151 kts | 218° |
| 2026-05-07 14:05 | 62.05470 | 8.91496 | 11985 ft | 150 kts | 218° |
| 2026-05-07 14:05 | 62.04601 | 8.90246 | 11985 ft | 150 kts | 218° |
| 2026-05-07 14:06 | 62.03729 | 8.89003 | 11986 ft | 151 kts | 218° |
| 2026-05-07 14:06 | 62.02853 | 8.87758 | 11983 ft | 151 kts | 218° |
| 2026-05-07 14:06 | 62.01985 | 8.86524 | 11983 ft | 148 kts | 218° |
| 2026-05-07 14:06 | 62.01127 | 8.85303 | 11981 ft | 149 kts | 218° |
| 2026-05-07 14:07 | 62.00283 | 8.84098 | 11979 ft | 148 kts | 218° |
| 2026-05-07 14:07 | 61.99421 | 8.82875 | 11982 ft | 149 kts | 218° |
| 2026-05-07 14:07 | 61.98559 | 8.81645 | 11982 ft | 149 kts | 218° |
| 2026-05-07 14:07 | 61.97697 | 8.80428 | 11980 ft | 149 kts | 218° |
| 2026-05-07 14:08 | 61.96836 | 8.79208 | 11979 ft | 148 kts | 218° |
| 2026-05-07 14:08 | 61.95978 | 8.77987 | 11980 ft | 149 kts | 218° |
| 2026-05-07 14:08 | 61.95112 | 8.76763 | 11981 ft | 149 kts | 218° |
| 2026-05-07 14:08 | 61.94255 | 8.75553 | 11979 ft | 147 kts | 218° |
| 2026-05-07 14:09 | 61.93402 | 8.74344 | 11979 ft | 148 kts | 218° |
| 2026-05-07 14:09 | 61.92547 | 8.73134 | 11980 ft | 148 kts | 218° |
| 2026-05-07 14:09 | 61.91703 | 8.71942 | 11978 ft | 148 kts | 218° |
| 2026-05-07 14:09 | 61.90837 | 8.70720 | 11984 ft | 148 kts | 218° |
| 2026-05-07 14:10 | 61.89969 | 8.69490 | 11981 ft | 151 kts | 218° |
| 2026-05-07 14:10 | 61.89106 | 8.68280 | 11988 ft | 151 kts | 218° |
| 2026-05-07 14:10 | 61.88233 | 8.67050 | 11989 ft | 150 kts | 218° |
| 2026-05-07 14:10 | 61.87361 | 8.65823 | 11989 ft | 150 kts | 218° |
| 2026-05-07 14:11 | 61.86495 | 8.64606 | 11991 ft | 149 kts | 218° |
| 2026-05-07 14:11 | 61.85630 | 8.63388 | 11990 ft | 149 kts | 218° |
| 2026-05-07 14:11 | 61.84769 | 8.62178 | 11989 ft | 149 kts | 218° |
| 2026-05-07 14:11 | 61.83901 | 8.60960 | 11991 ft | 150 kts | 218° |
| 2026-05-07 14:12 | 61.83030 | 8.59739 | 11989 ft | 150 kts | 218° |
| 2026-05-07 14:12 | 61.82157 | 8.58516 | 11998 ft | 150 kts | 218° |
| 2026-05-07 14:12 | 61.81293 | 8.57305 | 11998 ft | 148 kts | 218° |
| 2026-05-07 14:12 | 61.80435 | 8.56104 | 12000 ft | 148 kts | 218° |
| 2026-05-07 14:13 | 61.79575 | 8.54900 | 12001 ft | 148 kts | 218° |
| 2026-05-07 14:13 | 61.78715 | 8.53697 | 11999 ft | 149 kts | 218° |
| 2026-05-07 14:13 | 61.77863 | 8.52507 | 12005 ft | 148 kts | 218° |
| 2026-05-07 14:13 | 61.77007 | 8.51312 | 12001 ft | 149 kts | 218° |
| 2026-05-07 14:14 | 61.76138 | 8.50099 | 12001 ft | 148 kts | 218° |
| 2026-05-07 14:14 | 61.75276 | 8.48898 | 12004 ft | 149 kts | 218° |
| 2026-05-07 14:14 | 61.74407 | 8.47687 | 12006 ft | 150 kts | 218° |
| 2026-05-07 14:14 | 61.73535 | 8.46471 | 12008 ft | 151 kts | 218° |
| 2026-05-07 14:15 | 61.72656 | 8.45248 | 12008 ft | 153 kts | 218° |
| 2026-05-07 14:15 | 61.71768 | 8.44016 | 12007 ft | 152 kts | 218° |
| 2026-05-07 14:15 | 61.70888 | 8.42793 | 12003 ft | 150 kts | 218° |
| 2026-05-07 14:15 | 61.70021 | 8.41591 | 12001 ft | 148 kts | 218° |
| 2026-05-07 14:16 | 61.69450 | 8.40799 | 12000 ft | 147 kts | 218° |
| 2026-05-07 14:16 | 61.68596 | 8.39613 | 11998 ft | 146 kts | 218° |
| 2026-05-07 14:16 | 61.67747 | 8.38437 | 11994 ft | 146 kts | 218° |
| 2026-05-07 14:16 | 61.66906 | 8.37274 | 11999 ft | 144 kts | 218° |
| 2026-05-07 14:17 | 61.66067 | 8.36113 | 11993 ft | 144 kts | 218° |
| 2026-05-07 14:17 | 61.65232 | 8.34958 | 11999 ft | 143 kts | 218° |
| 2026-05-07 14:17 | 61.64402 | 8.33809 | 11998 ft | 142 kts | 218° |
| 2026-05-07 14:17 | 61.63577 | 8.32667 | 11998 ft | 142 kts | 218° |
| 2026-05-07 14:18 | 61.62736 | 8.31544 | 12003 ft | 144 kts | 217° |
| 2026-05-07 14:18 | 61.61910 | 8.30363 | 12008 ft | 144 kts | 218° |
| 2026-05-07 14:18 | 61.61071 | 8.29206 | 12005 ft | 144 kts | 218° |
| 2026-05-07 14:18 | 61.60231 | 8.28044 | 12001 ft | 144 kts | 218° |
| 2026-05-07 14:19 | 61.59395 | 8.26894 | 12013 ft | 145 kts | 218° |
| 2026-05-07 14:19 | 61.58543 | 8.25722 | 12009 ft | 147 kts | 218° |
| 2026-05-07 14:19 | 61.57694 | 8.24563 | 12009 ft | 144 kts | 218° |
| 2026-05-07 14:19 | 61.56844 | 8.23403 | 12014 ft | 148 kts | 218° |
| 2026-05-07 14:20 | 61.55981 | 8.22206 | 12013 ft | 149 kts | 218° |
| 2026-05-07 14:20 | 61.55125 | 8.21032 | 12008 ft | 148 kts | 218° |
| 2026-05-07 14:20 | 61.54265 | 8.19854 | 11991 ft | 144 kts | 218° |
| 2026-05-07 14:20 | 61.53428 | 8.18716 | 11996 ft | 146 kts | 218° |
| 2026-05-07 14:21 | 61.52577 | 8.17540 | 11996 ft | 143 kts | 218° |
| 2026-05-07 14:21 | 61.51732 | 8.16401 | 11993 ft | 145 kts | 218° |
| 2026-05-07 14:21 | 61.50904 | 8.15248 | 11995 ft | 145 kts | 218° |
| 2026-05-07 14:21 | 61.50057 | 8.14094 | 11998 ft | 146 kts | 217° |
| 2026-05-07 14:22 | 61.49198 | 8.12919 | 11997 ft | 148 kts | 218° |
| 2026-05-07 14:22 | 61.48340 | 8.11749 | 11994 ft | 146 kts | 218° |
| 2026-05-07 14:22 | 61.47492 | 8.10597 | 11998 ft | 145 kts | 218° |
| 2026-05-07 14:22 | 61.46640 | 8.09431 | 11997 ft | 148 kts | 218° |
| 2026-05-07 14:23 | 61.45784 | 8.08266 | 11991 ft | 146 kts | 218° |
| 2026-05-07 14:23 | 61.44933 | 8.07110 | 11989 ft | 146 kts | 218° |
| 2026-05-07 14:23 | 61.44073 | 8.05938 | 11989 ft | 148 kts | 218° |
| 2026-05-07 14:23 | 61.43213 | 8.04768 | 11982 ft | 147 kts | 218° |
| 2026-05-07 14:24 | 61.42360 | 8.03617 | 11986 ft | 146 kts | 218° |
| 2026-05-07 14:24 | 61.41507 | 8.02452 | 11987 ft | 147 kts | 218° |
| 2026-05-07 14:24 | 61.40649 | 8.01286 | 11990 ft | 147 kts | 217° |
| 2026-05-07 14:24 | 61.39789 | 8.00120 | 11990 ft | 148 kts | 217° |
| 2026-05-07 14:25 | 61.38920 | 7.98943 | 11989 ft | 149 kts | 217° |
| 2026-05-07 14:25 | 61.38048 | 7.97762 | 11988 ft | 149 kts | 218° |
| 2026-05-07 14:25 | 61.37177 | 7.96584 | 11990 ft | 149 kts | 217° |
| 2026-05-07 14:25 | 61.36306 | 7.95406 | 11988 ft | 149 kts | 217° |
| 2026-05-07 14:26 | 61.35452 | 7.94254 | 11990 ft | 147 kts | 218° |
| 2026-05-07 14:26 | 61.34595 | 7.93097 | 11984 ft | 146 kts | 218° |
| 2026-05-07 14:26 | 61.33748 | 7.91956 | 11980 ft | 145 kts | 217° |
| 2026-05-07 14:26 | 61.32905 | 7.90816 | 11980 ft | 145 kts | 218° |
| 2026-05-07 14:27 | 61.32050 | 7.89661 | 11977 ft | 146 kts | 218° |
| 2026-05-07 14:27 | 61.31192 | 7.88507 | 11982 ft | 147 kts | 217° |
| 2026-05-07 14:27 | 61.30327 | 7.87342 | 11968 ft | 147 kts | 217° |
| 2026-05-07 14:27 | 61.29478 | 7.86202 | 11976 ft | 145 kts | 218° |
| 2026-05-07 14:28 | 61.28622 | 7.85050 | 11981 ft | 148 kts | 217° |
| 2026-05-07 14:28 | 61.27767 | 7.83894 | 11971 ft | 144 kts | 217° |
| 2026-05-07 14:28 | 61.26921 | 7.82771 | 11954 ft | 145 kts | 218° |
| 2026-05-07 14:28 | 61.26066 | 7.81618 | 11956 ft | 147 kts | 217° |
| 2026-05-07 14:29 | 61.25203 | 7.80463 | 11979 ft | 147 kts | 217° |
| 2026-05-07 14:29 | 61.24344 | 7.79312 | 11998 ft | 146 kts | 217° |
| 2026-05-07 14:29 | 61.23491 | 7.78166 | 11995 ft | 145 kts | 218° |
| 2026-05-07 14:29 | 61.22658 | 7.77043 | 11998 ft | 141 kts | 217° |
| 2026-05-07 14:30 | 61.21835 | 7.75970 | 12004 ft | 143 kts | 218° |
| 2026-05-07 14:30 | 61.20994 | 7.74829 | 12004 ft | 146 kts | 218° |
| 2026-05-07 14:30 | 61.20130 | 7.73673 | 12005 ft | 146 kts | 217° |
| 2026-05-07 14:30 | 61.19280 | 7.72540 | 12003 ft | 145 kts | 217° |
| 2026-05-07 14:31 | 61.18471 | 7.71371 | 12002 ft | 142 kts | 227° |
| 2026-05-07 14:31 | 61.17893 | 7.69756 | 12007 ft | 139 kts | 244° |
| 2026-05-07 14:31 | 61.17437 | 7.67971 | 12012 ft | 143 kts | 243° |
| 2026-05-07 14:31 | 61.16961 | 7.66159 | 12011 ft | 144 kts | 243° |
| 2026-05-07 14:32 | 61.16485 | 7.64349 | 12007 ft | 142 kts | 243° |
| 2026-05-07 14:32 | 61.16013 | 7.62549 | 12009 ft | 142 kts | 242° |
| 2026-05-07 14:32 | 61.15544 | 7.60753 | 12010 ft | 141 kts | 243° |
| 2026-05-07 14:32 | 61.15077 | 7.58966 | 12009 ft | 141 kts | 243° |
| 2026-05-07 14:33 | 61.14613 | 7.57191 | 12005 ft | 140 kts | 243° |
| 2026-05-07 14:33 | 61.14151 | 7.55433 | 12005 ft | 139 kts | 243° |
| 2026-05-07 14:33 | 61.13689 | 7.53676 | 12007 ft | 139 kts | 243° |
| 2026-05-07 14:33 | 61.13232 | 7.51895 | 12011 ft | 142 kts | 243° |
| 2026-05-07 14:34 | 61.12753 | 7.50102 | 11978 ft | 142 kts | 240° |
| 2026-05-07 14:34 | 61.12280 | 7.48332 | 11986 ft | 140 kts | 242° |
| 2026-05-07 14:34 | 61.11821 | 7.46577 | 11992 ft | 140 kts | 242° |
| 2026-05-07 14:34 | 61.11352 | 7.44787 | 11989 ft | 143 kts | 242° |
| 2026-05-07 14:35 | 61.10881 | 7.43009 | 11992 ft | 142 kts | 242° |
| 2026-05-07 14:35 | 61.10413 | 7.41230 | 11994 ft | 140 kts | 242° |
| 2026-05-07 14:35 | 61.09938 | 7.39444 | 11986 ft | 141 kts | 241° |
| 2026-05-07 14:35 | 61.09470 | 7.37650 | 11990 ft | 142 kts | 242° |
| 2026-05-07 14:36 | 61.08992 | 7.35878 | 11984 ft | 140 kts | 241° |
| 2026-05-07 14:36 | 61.08528 | 7.34101 | 11988 ft | 140 kts | 242° |
| 2026-05-07 14:36 | 61.08061 | 7.32321 | 11987 ft | 142 kts | 242° |
| 2026-05-07 14:36 | 61.07583 | 7.30528 | 11988 ft | 143 kts | 241° |
| 2026-05-07 14:37 | 61.07106 | 7.28735 | 11987 ft | 142 kts | 242° |
| 2026-05-07 14:37 | 61.06162 | 7.25183 | 11934 ft | 142 kts | 242° |
| 2026-05-07 14:37 | 61.05670 | 7.23323 | 11724 ft | 153 kts | 241° |
| 2026-05-07 14:38 | 61.05143 | 7.21351 | 11490 ft | 160 kts | 241° |
| 2026-05-07 14:38 | 61.04595 | 7.19291 | 11251 ft | 165 kts | 241° |
| 2026-05-07 14:38 | 61.04048 | 7.17230 | 11038 ft | 163 kts | 242° |
| 2026-05-07 14:38 | 61.03500 | 7.15188 | 10824 ft | 163 kts | 241° |
| 2026-05-07 14:39 | 61.02953 | 7.13141 | 10610 ft | 163 kts | 241° |
| 2026-05-07 14:39 | 61.02400 | 7.11072 | 10379 ft | 165 kts | 241° |
| 2026-05-07 14:39 | 61.01846 | 7.09008 | 10167 ft | 163 kts | 241° |
| 2026-05-07 14:39 | 61.01299 | 7.06964 | 9968 ft | 164 kts | 241° |
| 2026-05-07 14:40 | 61.00752 | 7.04931 | 9735 ft | 163 kts | 242° |
| 2026-05-07 14:40 | 61.00213 | 7.02911 | 9537 ft | 159 kts | 242° |
| 2026-05-07 14:40 | 60.99689 | 7.00949 | 9352 ft | 155 kts | 241° |
| 2026-05-07 14:40 | 60.99160 | 6.98996 | 9144 ft | 157 kts | 241° |
| 2026-05-07 14:41 | 60.98628 | 6.97031 | 8943 ft | 156 kts | 241° |
| 2026-05-07 14:41 | 60.98094 | 6.95043 | 8742 ft | 157 kts | 241° |
| 2026-05-07 14:41 | 60.97569 | 6.93090 | 8538 ft | 160 kts | 241° |
| 2026-05-07 14:41 | 60.97020 | 6.91056 | 8304 ft | 162 kts | 240° |
| 2026-05-07 14:42 | 60.96576 | 6.88942 | 8103 ft | 161 kts | 256° |
| 2026-05-07 14:42 | 60.96533 | 6.86622 | 7883 ft | 166 kts | 275° |
| 2026-05-07 14:42 | 60.96930 | 6.84356 | 7663 ft | 173 kts | 298° |
| 2026-05-07 14:42 | 60.97755 | 6.82511 | 7429 ft | 178 kts | 321° |
| 2026-05-07 14:43 | 60.98765 | 6.81020 | 7193 ft | 181 kts | 321° |
| 2026-05-07 14:43 | 60.99784 | 6.79484 | 6951 ft | 180 kts | 322° |
| 2026-05-07 14:43 | 61.00911 | 6.78387 | 6712 ft | 179 kts | 346° |
| 2026-05-07 14:43 | 61.02136 | 6.78312 | 6490 ft | 173 kts | 10° |
| 2026-05-07 14:44 | 61.03196 | 6.79110 | 6480 ft | 153 kts | 32° |
| 2026-05-07 14:44 | 61.03975 | 6.80428 | 6482 ft | 144 kts | 51° |
| 2026-05-07 14:44 | 61.04577 | 6.82123 | 6443 ft | 147 kts | 56° |
| 2026-05-07 14:44 | 61.05207 | 6.83855 | 6283 ft | 157 kts | 56° |
| 2026-05-07 14:45 | 61.05863 | 6.85712 | 6057 ft | 163 kts | 56° |
| 2026-05-07 14:45 | 61.06526 | 6.87547 | 6000 ft | 154 kts | 54° |
| 2026-05-07 14:45 | 61.07182 | 6.89320 | 5994 ft | 153 kts | 54° |
| 2026-05-07 14:45 | 61.07782 | 6.91141 | 5839 ft | 156 kts | 59° |
| 2026-05-07 14:46 | 61.08424 | 6.92933 | 5621 ft | 155 kts | 53° |
| 2026-05-07 14:46 | 61.09078 | 6.94718 | 5354 ft | 156 kts | 55° |
| 2026-05-07 14:46 | 61.09707 | 6.96534 | 5097 ft | 156 kts | 55° |
| 2026-05-07 14:46 | 61.10349 | 6.98340 | 4838 ft | 155 kts | 55° |
| 2026-05-07 14:47 | 61.10980 | 7.00147 | 4557 ft | 155 kts | 55° |
| 2026-05-07 14:47 | 61.11616 | 7.01929 | 4265 ft | 152 kts | 55° |
| 2026-05-07 14:47 | 61.12225 | 7.03673 | 3971 ft | 142 kts | 55° |
| 2026-05-07 14:47 | 61.12773 | 7.05233 | 3685 ft | 128 kts | 54° |
| 2026-05-07 14:48 | 61.13283 | 7.06678 | 3372 ft | 122 kts | 55° |
| 2026-05-07 14:48 | 61.13782 | 7.08107 | 3014 ft | 124 kts | 54° |
| 2026-05-07 14:48 | 61.14267 | 7.09492 | 2637 ft | 110 kts | 54° |
| 2026-05-07 14:48 | 61.14695 | 7.10702 | 2171 ft | 99 kts | 55° |
| 2026-05-07 14:49 | 61.15057 | 7.11815 | 1873 ft | 88 kts | 58° |
| 2026-05-07 14:49 | 61.15362 | 7.12858 | 1633 ft | 77 kts | 60° |
| 2026-05-07 14:49 | 61.15536 | 7.13480 | 1630 ft | 31 kts | 59° |
| 2026-05-07 14:49 | 61.15628 | 7.13793 | 1628 ft | 17 kts | 52° |
| 2026-05-07 14:50 | 61.15679 | 7.13809 | 1630 ft | 7 kts | 333° |
| 2026-05-07 14:50 | 61.15735 | 7.13855 | 1632 ft | 12 kts | 48° |
| 2026-05-07 14:50 | 61.15773 | 7.13912 | 1634 ft | 0 kts | 31° |